Time;durP1;ratioP1;P1;durP2;ratioP2;P2;SDS_P1;SDS_P2;PMS_P1;PMS_P2;Temp;Humidity;BMP_temperature;BMP_pressure;BME280_temperature;BME280_humidity;BME280_pressure;Samples;Min_cycle;Max_cycle;Signal;HPM_P1;HPM_P2
2023/06/07 00:01:42;;;;;;;11.27;6.40;;;;;;;18.23;59.90;101908.50;5092293;28;20030;-62
2023/06/07 00:04:11;;;;;;;13.65;6.50;;;;;;;18.14;59.84;101904.97;5092736;28;20058;-62
2023/06/07 00:06:39;;;;;;;12.95;6.32;;;;;;;18.22;59.99;101911.19;5092200;28;20028;-62
2023/06/07 00:09:06;;;;;;;13.02;5.97;;;;;;;18.20;60.02;101910.28;5092330;28;20048;-62
2023/06/07 00:11:31;;;;;;;15.63;6.40;;;;;;;18.16;60.51;101920.16;5094174;28;20107;-63
2023/06/07 00:13:59;;;;;;;13.00;6.38;;;;;;;18.10;60.30;101913.91;5096106;28;20128;-62
2023/06/07 00:16:26;;;;;;;17.13;6.53;;;;;;;18.01;60.72;101914.84;5077448;28;20024;-63
2023/06/07 00:18:51;;;;;;;13.45;6.18;;;;;;;18.07;60.94;101920.16;5095742;28;20098;-62
2023/06/07 00:21:19;;;;;;;13.75;6.07;;;;;;;18.04;60.51;101911.28;5096132;28;20036;-63
2023/06/07 00:23:45;;;;;;;13.73;6.47;;;;;;;17.96;61.01;101912.19;5095770;28;20032;-62
2023/06/07 00:26:11;;;;;;;13.45;6.70;;;;;;;18.01;60.77;101923.75;5095877;28;20477;-62
2023/06/07 00:28:36;;;;;;;13.77;6.60;;;;;;;17.99;60.57;101916.63;5095954;28;20149;-62
2023/06/07 00:31:02;;;;;;;13.30;6.53;;;;;;;17.90;60.88;101919.31;5095564;28;20032;-62
2023/06/07 00:33:27;;;;;;;14.52;6.72;;;;;;;17.87;61.13;101914.00;5077463;28;20031;-61
2023/06/07 00:35:52;;;;;;;10.98;6.75;;;;;;;17.82;61.26;101911.31;5095608;28;20034;-63
2023/06/07 00:38:18;;;;;;;11.38;6.35;;;;;;;17.83;60.85;101912.22;5095484;28;20035;-62
2023/06/07 00:40:43;;;;;;;10.90;6.35;;;;;;;17.83;61.01;101912.22;5095458;28;20036;-63
2023/06/07 00:43:09;;;;;;;12.82;6.43;;;;;;;17.94;60.48;101913.06;5095568;28;20036;-62
2023/06/07 00:45:34;;;;;;;10.65;6.50;;;;;;;17.99;60.14;101916.63;5095402;28;20060;-62
2023/06/07 00:48:00;;;;;;;13.30;6.40;;;;;;;17.90;60.86;101914.88;5095545;28;20450;-63
2023/06/07 00:50:26;;;;;;;15.30;6.40;;;;;;;17.82;60.85;101915.78;5095530;28;20032;-62
2023/06/07 00:52:52;;;;;;;13.07;6.70;;;;;;;17.78;60.98;101909.56;5076964;28;20035;-63
2023/06/07 00:55:17;;;;;;;12.85;6.47;;;;;;;17.86;60.66;101909.50;5095442;28;20028;-62
2023/06/07 00:57:43;;;;;;;13.13;6.07;;;;;;;17.97;60.78;101908.59;5095210;28;20389;-62
2023/06/07 01:00:13;;;;;;;13.70;6.43;;;;;;;17.98;60.19;101913.03;5095079;28;20130;-62
2023/06/07 01:02:39;;;;;;;11.20;6.15;;;;;;;17.99;60.36;101909.50;5095029;28;20456;-62
2023/06/07 01:05:06;;;;;;;13.05;6.57;;;;;;;17.82;61.00;101914.00;5094816;28;20136;-62
2023/06/07 01:07:32;;;;;;;12.00;6.28;;;;;;;17.79;60.84;101905.97;5094966;28;20043;-63
2023/06/07 01:09:59;;;;;;;13.93;6.60;;;;;;;17.64;61.27;101912.19;5095084;28;20028;-62
2023/06/07 01:12:26;;;;;;;12.23;6.40;;;;;;;17.64;61.49;101909.50;5094918;28;20021;-62
2023/06/07 01:14:52;;;;;;;11.13;6.70;;;;;;;17.57;61.61;101906.88;5076805;28;20070;-62
2023/06/07 01:17:24;;;;;;;11.50;5.75;;;;;;;17.47;61.94;101906.91;5076399;28;20047;-62
2023/06/07 01:19:53;;;;;;;13.20;6.53;;;;;;;17.56;62.04;101911.34;5095071;28;20044;-62
2023/06/07 01:22:27;;;;;;;12.75;6.32;;;;;;;17.42;62.10;101897.97;5093917;28;20020;-62
2023/06/07 01:24:55;;;;;;;11.52;6.50;;;;;;;17.38;62.49;101901.53;5094873;28;20051;-62
2023/06/07 01:27:27;;;;;;;12.88;6.13;;;;;;;17.30;62.50;101902.41;5094795;28;20044;-62
2023/06/07 01:29:54;;;;;;;12.98;6.47;;;;;;;17.36;62.41;101902.44;5094679;28;20085;-62
2023/06/07 01:32:21;;;;;;;15.48;6.40;;;;;;;17.34;62.25;101902.41;5094463;28;20024;-62
2023/06/07 01:34:48;;;;;;;10.90;6.10;;;;;;;17.33;62.20;101905.09;5094190;28;20553;-62
2023/06/07 01:37:14;;;;;;;11.02;6.45;;;;;;;17.22;62.66;101908.66;5094469;28;20493;-62
2023/06/07 01:39:41;;;;;;;15.13;6.55;;;;;;;17.23;62.62;101898.88;5094087;28;20035;-64
2023/06/07 01:42:09;;;;;;;11.98;6.57;;;;;;;17.22;62.50;101895.31;5094251;28;20489;-62
2023/06/07 01:44:37;;;;;;;11.43;6.85;;;;;;;17.09;62.70;101898.88;5094428;28;20028;-63
2023/06/07 01:47:03;;;;;;;11.55;6.35;;;;;;;17.01;63.11;101898.88;5076372;28;20024;-62
2023/06/07 01:49:29;;;;;;;11.98;6.30;;;;;;;16.95;63.28;101897.94;5094206;28;20060;-63
2023/06/07 01:51:54;;;;;;;13.80;6.40;;;;;;;16.93;63.47;101895.28;5094121;28;20066;-62
2023/06/07 01:54:19;;;;;;;11.05;6.28;;;;;;;16.94;63.59;101896.19;5093865;28;20031;-62
2023/06/07 01:57:14;;;;;;;12.70;6.63;;;;;;;16.94;63.49;101893.50;5094225;28;20059;-62
2023/06/07 02:00:08;;;;;;;13.68;6.93;;;;;;;16.94;63.18;101891.72;5094303;28;20043;-62
2023/06/07 02:02:42;;;;;;;16.58;6.85;;;;;;;16.88;63.41;101889.06;5093971;28;20035;-62
2023/06/07 02:05:13;;;;;;;13.40;6.35;;;;;;;16.83;63.79;101880.16;5093829;28;20028;-62
2023/06/07 02:07:53;;;;;;;15.55;6.63;;;;;;;16.90;63.88;101887.25;5093897;28;20086;-63
2023/06/07 02:10:25;;;;;;;13.50;6.78;;;;;;;16.85;63.65;101896.16;5093816;28;20465;-62
2023/06/07 02:12:52;;;;;;;;;;;;;;;16.93;62.43;101895.28;5076138;28;20484;-62
2023/06/07 02:15:18;;;;;;;13.40;6.63;;;;;;;16.63;64.27;101889.88;5093522;28;19978;-62
2023/06/07 02:18:01;;;;;;;15.18;7.00;;;;;;;16.73;63.95;101891.69;5093542;28;20046;-62
2023/06/07 02:20:30;;;;;;;12.60;6.80;;;;;;;16.70;64.25;101895.22;5093745;28;20036;-62
2023/06/07 02:22:57;;;;;;;12.10;6.63;;;;;;;16.56;64.32;101899.63;5093396;28;20481;-62
2023/06/07 02:25:26;;;;;;;12.02;6.63;;;;;;;16.58;64.65;101896.97;5093532;28;20016;-62
2023/06/07 02:27:52;;;;;;;13.75;7.13;;;;;;;16.46;64.77;101882.69;5093378;28;20057;-62
2023/06/07 02:30:18;;;;;;;15.00;6.75;;;;;;;16.49;65.16;101895.16;5093392;28;20477;-62
2023/06/07 02:32:49;;;;;;;14.43;6.88;;;;;;;16.45;65.00;101880.03;5075096;28;20042;-62
2023/06/07 02:35:17;;;;;;;12.90;6.97;;;;;;;16.52;64.67;101890.69;5093092;28;20036;-62
2023/06/07 02:37:42;;;;;;;13.40;7.22;;;;;;;16.60;64.37;101889.84;5093674;28;20367;-62
2023/06/07 02:40:09;;;;;;;15.88;6.90;;;;;;;16.60;64.62;101887.19;5075120;28;20035;-62
2023/06/07 02:42:36;;;;;;;15.80;7.38;;;;;;;16.49;64.82;101895.16;5093589;28;20032;-62
2023/06/07 02:45:02;;;;;;;14.55;7.45;;;;;;;16.41;64.97;101891.59;5093167;28;20115;-62
2023/06/07 02:47:28;;;;;;;13.98;7.28;;;;;;;16.50;64.96;101892.50;5093144;28;20028;-62
2023/06/07 02:49:54;;;;;;;13.73;7.63;;;;;;;16.58;64.73;101892.53;5075006;28;20123;-62
2023/06/07 02:52:19;;;;;;;13.82;7.65;;;;;;;16.57;64.50;101893.38;5093344;28;20454;-62
2023/06/07 02:54:45;;;;;;;17.63;7.75;;;;;;;16.50;64.98;101894.28;5092722;28;20481;-62
2023/06/07 02:57:10;;;;;;;12.82;7.10;;;;;;;16.57;64.53;101889.81;5110138;28;20111;-62
2023/06/07 02:59:39;;;;;;;14.80;7.20;;;;;;;16.55;64.70;101891.63;5113439;28;20519;-62
2023/06/07 03:02:04;;;;;;;14.23;7.28;;;;;;;16.46;64.83;101892.47;5113491;28;20032;-62
2023/06/07 03:04:30;;;;;;;17.48;6.93;;;;;;;16.47;64.99;101899.59;5113353;28;20038;-62
2023/06/07 03:06:55;;;;;;;14.65;7.18;;;;;;;16.45;64.93;101904.03;5112914;28;20066;-62
2023/06/07 03:09:22;;;;;;;17.10;7.38;;;;;;;16.44;64.98;101897.78;5113023;28;20473;-63
2023/06/07 03:11:48;;;;;;;14.40;7.15;;;;;;;16.37;65.15;101893.34;5095072;28;20031;-62
2023/06/07 03:14:14;;;;;;;17.42;7.18;;;;;;;16.22;65.75;101896.81;5113375;28;20044;-63
2023/06/07 03:16:40;;;;;;;17.40;7.57;;;;;;;16.25;65.56;101893.28;5113103;28;20031;-62
2023/06/07 03:19:06;;;;;;;14.80;7.13;;;;;;;16.12;65.81;101891.47;5113219;28;20108;-62
2023/06/07 03:21:31;;;;;;;13.70;7.53;;;;;;;16.08;66.26;101898.53;5113254;28;20028;-62
2023/06/07 03:23:56;;;;;;;16.20;7.43;;;;;;;15.98;66.39;101902.06;5112931;28;20481;-63
2023/06/07 03:26:22;;;;;;;14.55;7.07;;;;;;;16.06;66.30;101903.00;5113094;28;20166;-62
2023/06/07 03:28:48;;;;;;;14.38;7.35;;;;;;;16.10;66.34;101902.13;5113390;28;20039;-63
2023/06/07 03:31:13;;;;;;;13.90;7.03;;;;;;;15.96;66.55;101895.81;5113114;28;20450;-62
2023/06/07 03:33:39;;;;;;;15.43;7.35;;;;;;;15.93;66.60;101907.38;5094942;28;20039;-62
2023/06/07 03:36:07;;;;;;;16.95;7.22;;;;;;;15.93;66.62;101903.78;5113065;28;20051;-62
2023/06/07 03:38:33;;;;;;;15.02;7.13;;;;;;;15.89;66.63;101904.69;5112720;28;20028;-63
2023/06/07 03:40:58;;;;;;;13.45;7.10;;;;;;;16.02;67.00;101901.19;5113061;28;20040;-62
2023/06/07 03:43:24;;;;;;;17.25;7.43;;;;;;;16.08;66.43;101903.00;5094936;28;20055;-62
2023/06/07 03:45:49;;;;;;;14.35;7.22;;;;;;;16.07;66.37;101904.78;5113618;28;20488;-62
2023/06/07 03:48:15;;;;;;;12.43;6.55;;;;;;;16.07;66.55;101910.09;5117098;28;20027;-62
2023/06/07 03:50:40;;;;;;;13.85;6.85;;;;;;;15.97;66.53;101908.25;5116817;28;20437;-63
2023/06/07 03:53:05;;;;;;;13.57;6.85;;;;;;;15.87;66.72;101912.63;5116840;28;20027;-63
2023/06/07 03:55:31;;;;;;;15.00;7.03;;;;;;;15.84;67.15;101901.94;5116651;28;20027;-62
2023/06/07 03:57:57;;;;;;;15.25;7.22;;;;;;;15.90;67.07;101906.44;5116761;28;20028;-62
2023/06/07 04:00:26;;;;;;;15.70;6.68;;;;;;;15.76;67.23;101909.03;5116841;28;20385;-63
2023/06/07 04:02:53;;;;;;;13.65;7.18;;;;;;;15.78;67.35;101909.94;5116556;28;20020;-62
2023/06/07 04:05:19;;;;;;;16.63;6.82;;;;;;;15.74;67.56;101909.00;5116219;28;20126;-62
2023/06/07 04:07:47;;;;;;;14.35;7.00;;;;;;;15.70;67.57;101903.66;5116406;28;20107;-62
2023/06/07 04:10:13;;;;;;;14.80;6.90;;;;;;;15.74;67.58;101902.78;5116677;28;20051;-62
2023/06/07 04:12:38;;;;;;;11.52;6.68;;;;;;;15.71;67.57;101908.97;5116688;28;20020;-62
2023/06/07 04:15:04;;;;;;;13.80;6.60;;;;;;;15.73;67.71;101911.69;5116252;28;20491;-61
2023/06/07 04:17:29;;;;;;;16.38;6.50;;;;;;;15.87;67.32;101901.97;5116390;28;20043;-62
2023/06/07 04:19:56;;;;;;;17.75;7.13;;;;;;;15.82;67.34;101901.06;5116259;28;20042;-62
2023/06/07 04:22:22;;;;;;;14.32;6.72;;;;;;;15.80;67.33;101902.81;5116338;28;20035;-62
2023/06/07 04:24:48;;;;;;;17.45;6.65;;;;;;;15.81;67.37;101909.06;5116299;28;20032;-63
2023/06/07 04:27:17;;;;;;;15.55;7.22;;;;;;;15.77;67.62;101906.38;5116239;28;20024;-62
2023/06/07 04:29:43;;;;;;;14.88;7.10;;;;;;;15.84;67.17;101906.41;5116178;28;20033;-62
2023/06/07 04:32:09;;;;;;;16.85;7.07;;;;;;;15.89;67.25;101904.69;5115985;28;20027;-62
2023/06/07 04:34:41;;;;;;;14.05;6.57;;;;;;;15.88;67.11;101906.41;5115900;28;20028;-64
2023/06/07 04:37:08;;;;;;;14.57;6.00;;;;;;;16.03;66.81;101908.31;5115839;28;20028;-62
2023/06/07 04:39:36;;;;;;;13.02;6.68;;;;;;;15.99;66.54;101896.72;5115990;28;20035;-62
2023/06/07 04:42:05;;;;;;;16.17;7.00;;;;;;;15.91;66.70;101913.56;5115879;28;20032;-63
2023/06/07 04:44:31;;;;;;;13.75;6.90;;;;;;;15.85;66.86;101927.75;5115751;28;20020;-62
2023/06/07 04:46:59;;;;;;;12.52;6.57;;;;;;;15.98;67.24;101923.38;5115785;28;20030;-62
2023/06/07 04:49:25;;;;;;;16.30;6.57;;;;;;;15.90;66.85;101925.13;5115449;28;20019;-62
2023/06/07 04:51:55;;;;;;;13.93;6.88;;;;;;;15.91;66.90;101916.22;5115290;28;20081;-62
2023/06/07 04:54:20;;;;;;;15.80;7.07;;;;;;;15.89;67.21;101920.66;5115565;28;20028;-62
2023/06/07 04:56:46;;;;;;;15.70;6.47;;;;;;;15.91;66.86;101922.44;5115119;28;20024;-62
2023/06/07 04:59:12;;;;;;;13.57;6.80;;;;;;;15.82;66.79;101913.50;5115537;28;20106;-62
2023/06/07 05:01:38;;;;;;;15.40;6.70;;;;;;;15.82;67.37;101918.84;5115254;28;20085;-62
2023/06/07 05:04:03;;;;;;;16.98;6.82;;;;;;;15.81;66.84;101912.63;5115561;28;20035;-63
2023/06/07 05:06:31;;;;;;;13.65;7.28;;;;;;;15.90;66.92;101920.66;5115057;28;20479;-63
2023/06/07 05:08:56;;;;;;;15.48;6.60;;;;;;;15.97;66.53;101917.16;5115469;28;20026;-63
2023/06/07 05:11:21;;;;;;;15.35;6.75;;;;;;;15.95;66.74;101913.59;5096761;28;20392;-62
2023/06/07 05:13:47;;;;;;;15.27;6.90;;;;;;;15.92;66.86;101913.56;5115085;28;20106;-62
2023/06/07 05:16:15;;;;;;;11.07;6.22;;;;;;;15.97;66.88;101916.25;5114745;28;20023;-62
2023/06/07 05:18:42;;;;;;;17.52;6.70;;;;;;;16.01;66.79;101920.72;5114709;28;20043;-62
2023/06/07 05:21:08;;;;;;;13.48;6.55;;;;;;;16.01;66.24;101924.25;5115155;28;20024;-62
2023/06/07 05:23:33;;;;;;;14.52;6.65;;;;;;;16.01;66.35;101923.38;5115052;28;20095;-62
2023/06/07 05:25:59;;;;;;;14.98;6.63;;;;;;;16.07;66.46;101930.53;5114860;28;20468;-62
2023/06/07 05:28:24;;;;;;;10.95;6.05;;;;;;;16.16;66.21;101933.25;5115087;28;20034;-62
2023/06/07 05:30:50;;;;;;;14.30;6.10;;;;;;;16.33;66.25;101931.56;5114905;28;20034;-62
2023/06/07 05:33:15;;;;;;;17.13;6.43;;;;;;;16.34;65.81;101929.78;5114484;28;20114;-62
2023/06/07 05:35:46;;;;;;;14.00;6.30;;;;;;;16.43;65.40;101929.81;5098069;28;20177;-62
2023/06/07 05:38:11;;;;;;;14.52;6.50;;;;;;;16.37;65.41;101928.03;5094384;28;20066;-63
2023/06/07 05:40:36;;;;;;;12.68;6.10;;;;;;;16.40;64.89;101930.72;5094340;28;20054;-62
2023/06/07 05:43:02;;;;;;;16.30;6.53;;;;;;;16.31;65.16;101929.75;5094226;28;20031;-62
2023/06/07 05:45:28;;;;;;;14.40;6.07;;;;;;;16.33;64.96;101931.56;5094271;28;20106;-62
2023/06/07 05:47:53;;;;;;;16.58;6.30;;;;;;;16.43;65.26;101928.03;5094069;28;20032;-62
2023/06/07 05:50:23;;;;;;;12.00;6.05;;;;;;;16.45;65.20;101928.94;5094115;28;20036;-62
2023/06/07 05:52:59;;;;;;;12.73;6.72;;;;;;;16.55;64.65;101932.53;5094412;28;20036;-62
2023/06/07 05:55:25;;;;;;;16.05;6.43;;;;;;;16.62;64.76;101933.47;5093950;28;20125;-62
2023/06/07 05:57:51;;;;;;;14.93;6.53;;;;;;;16.68;64.09;101931.69;5094014;28;20028;-62
2023/06/07 06:00:17;;;;;;;13.70;6.35;;;;;;;16.74;64.40;101936.16;5093754;28;20085;-62
2023/06/07 06:02:45;;;;;;;13.48;6.47;;;;;;;16.80;63.69;101941.53;5093906;28;20466;-62
2023/06/07 06:05:11;;;;;;;12.75;6.45;;;;;;;16.92;63.55;101954.94;5093593;28;20028;-62
2023/06/07 06:07:37;;;;;;;14.18;6.13;;;;;;;16.86;63.23;101954.88;5093580;28;20024;-62
2023/06/07 06:10:04;;;;;;;13.57;6.35;;;;;;;16.78;63.32;101951.31;5092844;28;20047;-62
2023/06/07 06:12:30;;;;;;;14.88;6.50;;;;;;;16.72;63.56;101951.28;5093651;28;20028;-62
2023/06/07 06:14:55;;;;;;;14.95;6.35;;;;;;;16.78;63.44;101944.19;5093148;28;20020;-62
2023/06/07 06:17:21;;;;;;;13.50;6.22;;;;;;;16.85;63.17;101949.56;5093309;28;20480;-62
2023/06/07 06:19:47;;;;;;;14.75;5.90;;;;;;;16.81;63.56;101950.44;5093392;28;20031;-62
2023/06/07 06:22:12;;;;;;;15.90;6.53;;;;;;;16.92;63.39;101954.94;5093512;28;20055;-62
2023/06/07 06:24:38;;;;;;;18.50;6.75;;;;;;;16.97;62.63;101958.50;5093392;28;20051;-62
2023/06/07 06:27:03;;;;;;;13.90;6.28;;;;;;;17.02;63.10;101954.03;5093393;28;20106;-63
2023/06/07 06:29:29;;;;;;;15.07;6.68;;;;;;;17.11;62.13;101953.16;5093310;28;20064;-62
2023/06/07 06:31:55;;;;;;;15.63;6.28;;;;;;;17.15;62.37;101957.63;5093165;28;20117;-62
2023/06/07 06:34:20;;;;;;;15.73;6.43;;;;;;;17.17;61.85;101955.88;5093362;28;20028;-62
2023/06/07 06:36:46;;;;;;;15.93;6.40;;;;;;;17.14;61.83;101960.31;5092793;28;20470;-62
2023/06/07 06:39:12;;;;;;;16.38;6.22;;;;;;;17.25;60.90;101963.88;5092992;28;20020;-62
2023/06/07 06:41:38;;;;;;;14.07;6.30;;;;;;;17.26;61.05;101963.88;5092956;28;20089;-62
2023/06/07 06:44:03;;;;;;;14.48;6.63;;;;;;;17.26;61.25;101963.88;5093255;28;20078;-63
2023/06/07 06:46:28;;;;;;;13.57;5.72;;;;;;;17.37;61.88;101971.91;5093044;28;20027;-62
2023/06/07 06:48:54;;;;;;;17.33;5.97;;;;;;;17.28;60.78;101964.75;5093237;28;20040;-62
2023/06/07 06:51:19;;;;;;;17.35;5.95;;;;;;;17.32;61.02;101968.34;5092995;28;20115;-62
2023/06/07 06:53:45;;;;;;;15.35;5.93;;;;;;;17.35;61.67;101973.69;5092726;28;20537;-62
2023/06/07 06:56:10;;;;;;;22.83;6.55;;;;;;;17.45;60.80;101982.59;5074779;28;20438;-62
2023/06/07 06:58:36;;;;;;;13.00;6.05;;;;;;;17.55;60.67;101972.78;5092865;28;20028;-63
2023/06/07 07:01:02;;;;;;;14.60;5.97;;;;;;;17.64;60.22;101976.34;5093228;28;20020;-62
2023/06/07 07:03:28;;;;;;;13.93;5.72;;;;;;;17.73;59.33;101984.38;5074743;28;20028;-62
2023/06/07 07:05:53;;;;;;;14.13;5.97;;;;;;;17.71;60.04;101988.81;5092747;28;20043;-62
2023/06/07 07:08:19;;;;;;;10.48;5.63;;;;;;;17.80;59.49;101995.97;5074845;28;20032;-62
2023/06/07 07:10:45;;;;;;;14.32;5.90;;;;;;;17.91;58.86;101988.84;5092747;28;20082;-62
2023/06/07 07:13:10;;;;;;;15.43;6.00;;;;;;;18.01;58.42;101982.59;5092757;28;20034;-62
2023/06/07 07:15:36;;;;;;;12.88;5.75;;;;;;;18.18;57.44;101990.56;5093116;28;20584;-62
2023/06/07 07:18:02;;;;;;;14.50;5.90;;;;;;;18.31;57.57;101980.72;5092619;28;20105;-62
2023/06/07 07:20:28;;;;;;;14.63;6.00;;;;;;;18.50;56.28;101989.59;5092876;28;20028;-62
2023/06/07 07:22:55;;;;;;;18.10;6.20;;;;;;;18.68;55.41;101996.66;5097273;28;20077;-62
2023/06/07 07:25:20;;;;;;;11.68;5.70;;;;;;;18.91;54.85;101986.75;5096844;28;20036;-62
2023/06/07 07:27:46;;;;;;;14.77;6.40;;;;;;;18.95;54.50;101993.88;5096755;28;20103;-62
2023/06/07 07:30:11;;;;;;;13.52;5.95;;;;;;;18.87;54.49;101986.78;5096897;28;20028;-62
2023/06/07 07:32:37;;;;;;;11.82;5.53;;;;;;;18.94;54.85;101985.84;5097133;28;20027;-62
2023/06/07 07:35:02;;;;;;;12.75;5.78;;;;;;;18.99;53.74;101989.41;5096660;28;20028;-63
2023/06/07 07:37:28;;;;;;;12.13;5.80;;;;;;;19.01;54.01;101993.84;5096784;28;20481;-62
2023/06/07 07:39:54;;;;;;;14.10;6.07;;;;;;;18.98;55.19;101988.50;5096599;28;20024;-62
2023/06/07 07:42:20;;;;;;;12.93;5.75;;;;;;;18.96;54.76;101990.28;5096975;28;20069;-62
2023/06/07 07:44:45;;;;;;;15.15;6.28;;;;;;;19.06;54.10;101991.16;5096508;28;20115;-63
2023/06/07 07:47:11;;;;;;;18.85;6.43;;;;;;;19.19;54.97;101997.31;5096730;28;20031;-63
2023/06/07 07:49:37;;;;;;;14.05;5.72;;;;;;;19.17;54.45;101994.63;5096628;28;20024;-62
2023/06/07 07:52:03;;;;;;;12.70;5.97;;;;;;;19.24;54.22;101993.69;5096507;28;20439;-62
2023/06/07 07:54:29;;;;;;;14.10;5.75;;;;;;;19.38;54.48;101998.06;5078193;28;20361;-62
2023/06/07 07:56:55;;;;;;;12.15;5.88;;;;;;;19.53;53.91;102008.69;5096252;28;20032;-62
2023/06/07 07:59:20;;;;;;;13.52;6.10;;;;;;;19.53;53.41;102008.69;5096263;28;20032;-62
2023/06/07 08:01:46;;;;;;;16.13;5.95;;;;;;;19.62;53.17;102014.00;5096772;28;20039;-62
2023/06/07 08:04:12;;;;;;;14.82;6.13;;;;;;;19.69;52.15;102004.09;5096485;28;20028;-62
2023/06/07 08:06:38;;;;;;;17.90;6.07;;;;;;;20.07;52.46;102002.88;5095982;28;20103;-62
2023/06/07 08:09:05;;;;;;;11.10;5.20;;;;;;;20.67;52.50;101995.94;5096096;28;20024;-62
2023/06/07 08:11:31;;;;;;;12.40;5.50;;;;;;;21.33;49.47;101995.06;5096050;28;20043;-62
2023/06/07 08:13:56;;;;;;;12.27;5.47;;;;;;;21.85;48.43;101990.63;5096012;28;20386;-62
2023/06/07 08:16:21;;;;;;;15.65;5.50;;;;;;;22.33;46.45;101993.31;5096015;28;20452;-62
2023/06/07 08:18:49;;;;;;;12.80;5.40;;;;;;;22.65;46.69;101993.53;5095727;28;20068;-62
2023/06/07 08:21:15;;;;;;;12.98;5.65;;;;;;;22.86;44.82;102000.28;5096141;28;20089;-64
2023/06/07 08:23:43;;;;;;;14.13;5.88;;;;;;;22.96;43.91;101999.22;5077617;28;20418;-62
2023/06/07 08:26:08;;;;;;;15.23;5.82;;;;;;;23.39;43.26;101995.50;5095691;28;20465;-62
2023/06/07 08:28:34;;;;;;;13.60;5.68;;;;;;;23.34;42.85;101994.75;5095768;28;20043;-62
2023/06/07 08:31:01;;;;;;;15.95;5.60;;;;;;;23.51;42.63;101991.63;5095799;28;20031;-62
2023/06/07 08:33:27;;;;;;;14.88;5.90;;;;;;;23.76;43.75;101988.31;5094936;28;20481;-62
2023/06/07 08:35:52;;;;;;;17.23;5.65;;;;;;;24.01;42.17;101983.16;5095508;28;20039;-62
2023/06/07 08:38:17;;;;;;;12.90;6.00;;;;;;;24.28;41.56;101987.78;5077637;28;20079;-63
2023/06/07 08:40:43;;;;;;;16.55;6.05;;;;;;;24.59;40.04;101981.56;5095473;28;20505;-62
2023/06/07 08:43:08;;;;;;;13.05;6.22;;;;;;;24.62;39.88;101984.16;5095493;28;20031;-62
2023/06/07 08:45:34;;;;;;;15.05;5.93;;;;;;;24.38;40.92;101978.53;5077458;28;20111;-62
2023/06/07 08:48:06;;;;;;;14.23;6.00;;;;;;;24.10;42.87;101978.38;5095466;28;20034;-62
2023/06/07 08:50:32;;;;;;;17.00;6.13;;;;;;;24.04;41.54;101985.78;5095455;28;20129;-62
2023/06/07 08:53:05;;;;;;;14.25;6.13;;;;;;;24.03;42.01;101984.03;5095420;28;20028;-62
2023/06/07 08:55:33;;;;;;;14.15;5.70;;;;;;;24.14;41.51;101990.88;5095180;28;20028;-63
2023/06/07 08:57:59;;;;;;;13.73;5.68;;;;;;;24.36;40.88;101988.47;5095544;28;20028;-62
2023/06/07 09:00:25;;;;;;;15.23;6.20;;;;;;;24.56;39.92;101987.94;5095242;28;20031;-62
2023/06/07 09:02:52;;;;;;;16.25;6.30;;;;;;;24.52;39.94;101982.66;5095206;28;20478;-62
2023/06/07 09:05:19;;;;;;;13.98;6.00;;;;;;;24.83;41.15;101986.22;5095058;28;20020;-62
2023/06/07 09:07:45;;;;;;;14.35;5.82;;;;;;;25.01;41.54;101986.56;5095371;28;20047;-62
2023/06/07 09:10:10;;;;;;;14.50;6.28;;;;;;;25.04;39.73;101986.47;5094855;28;20020;-62
2023/06/07 09:12:35;;;;;;;14.90;6.40;;;;;;;25.03;39.40;101982.00;5095253;28;20024;-62
2023/06/07 09:15:02;;;;;;;14.93;6.70;;;;;;;24.82;39.73;101989.84;5094862;28;20473;-62
2023/06/07 09:18:03;;;;;;;18.17;6.45;;;;;;;24.80;40.67;101996.25;5094682;28;20072;-62
2023/06/07 09:20:33;;;;;;;15.40;6.55;;;;;;;24.65;40.06;101984.94;4992961;28;20042;-62
2023/06/07 09:23:09;;;;;;;14.10;6.97;;;;;;;24.35;40.99;101989.41;5076837;28;20052;-62
2023/06/07 09:25:37;;;;;;;13.63;6.80;;;;;;;24.06;40.97;102000.13;5094499;28;20039;-62
2023/06/07 09:28:04;;;;;;;14.88;6.47;;;;;;;23.88;41.21;102004.19;5094605;28;20491;-62
2023/06/07 09:30:29;;;;;;;14.57;6.60;;;;;;;23.75;41.88;101995.53;5094560;28;20020;-62
2023/06/07 09:32:55;;;;;;;13.75;7.32;;;;;;;23.55;43.10;101989.72;5094486;28;20105;-62
2023/06/07 09:35:21;;;;;;;15.93;7.25;;;;;;;23.44;43.63;101990.00;5094478;28;20039;-63
2023/06/07 09:37:48;;;;;;;14.20;6.95;;;;;;;23.48;43.22;101989.88;5094471;28;20111;-62
2023/06/07 09:40:15;;;;;;;17.60;6.78;;;;;;;23.55;44.59;101989.72;5094312;28;20031;-62
2023/06/07 09:42:41;;;;;;;19.80;6.55;;;;;;;23.53;43.81;101987.06;5094584;28;20028;-62
2023/06/07 09:45:14;;;;;;;17.30;7.03;;;;;;;23.79;43.05;101988.25;5093814;28;20482;-62
2023/06/07 09:47:41;;;;;;;16.55;7.03;;;;;;;23.80;42.90;101981.91;5094193;28;20173;-62
2023/06/07 09:50:09;;;;;;;17.25;7.10;;;;;;;23.82;43.37;101983.66;5094227;28;20114;-62
2023/06/07 09:52:34;;;;;;;22.55;6.82;;;;;;;23.94;42.63;101985.16;5094095;28;20036;-62
2023/06/07 09:55:02;;;;;;;13.25;7.57;;;;;;;23.93;42.34;101991.47;5093953;28;20085;-62
2023/06/07 09:57:30;;;;;;;20.55;7.85;;;;;;;23.77;42.38;101990.09;5075879;28;20028;-63
2023/06/07 10:00:08;;;;;;;17.08;7.47;;;;;;;23.77;43.06;101987.38;5093996;28;20035;-63
2023/06/07 10:02:33;;;;;;;17.15;7.15;;;;;;;23.78;43.22;101978.38;5094475;28;20113;-62
2023/06/07 10:05:00;;;;;;;21.45;7.65;;;;;;;23.65;43.79;101977.81;5094163;28;20355;-63
2023/06/07 10:07:46;;;;;;;15.48;7.18;;;;;;;23.70;43.58;101970.47;5094314;28;20020;-62
2023/06/07 10:10:15;;;;;;;15.32;7.15;;;;;;;23.56;44.44;101978.03;5093751;28;20020;-63
2023/06/07 10:12:42;;;;;;;18.38;7.22;;;;;;;23.60;44.65;101971.63;5093894;28;20493;-62
2023/06/07 10:15:15;;;;;;;15.40;6.60;;;;;;;23.66;44.53;101971.47;5094071;28;20035;-62
2023/06/07 10:18:11;;;;;;;18.77;7.35;;;;;;;23.73;43.30;101981.22;5093951;28;20173;-63
2023/06/07 10:20:47;;;;;;;14.60;7.30;;;;;;;23.73;44.42;101976.69;5093833;28;20035;-62
2023/06/07 10:23:18;;;;;;;12.23;7.30;;;;;;;23.62;44.19;101973.34;5093915;28;20036;-62
2023/06/07 10:25:51;;;;;;;13.57;7.20;;;;;;;23.67;44.31;101973.25;5093968;28;20074;-62
2023/06/07 10:28:30;;;;;;;13.23;7.05;;;;;;;23.59;44.86;101975.22;5093939;28;20173;-62
2023/06/07 10:31:05;;;;;;;16.35;6.85;;;;;;;23.55;44.30;101977.09;5093711;28;20028;-62
2023/06/07 10:33:35;;;;;;;16.52;7.22;;;;;;;23.55;44.14;101981.63;5093363;28;20488;-62
2023/06/07 10:36:01;;;;;;;17.30;7.65;;;;;;;23.47;45.66;101982.72;5093847;28;20068;-62
2023/06/07 10:38:29;;;;;;;13.18;7.10;;;;;;;23.48;46.12;101984.50;5075394;28;20020;-62
2023/06/07 10:40:57;;;;;;;12.27;6.93;;;;;;;23.37;45.73;101978.47;5093366;28;20103;-62
2023/06/07 10:43:27;;;;;;;15.50;7.05;;;;;;;23.35;45.54;101976.75;5075383;28;20032;-62
2023/06/07 10:46:23;;;;;;;17.20;7.25;;;;;;;23.34;45.86;101977.63;5093586;28;20027;-62
2023/06/07 10:48:49;;;;;;;16.95;7.30;;;;;;;23.31;45.67;101972.34;5093543;28;20027;-62
2023/06/07 10:51:15;;;;;;;15.13;7.05;;;;;;;23.36;44.89;101965.03;5093277;28;20051;-62
2023/06/07 10:53:55;;;;;;;17.20;7.47;;;;;;;23.30;44.89;101966.06;5093183;28;20462;-62
2023/06/07 10:56:35;;;;;;;18.40;7.00;;;;;;;23.31;45.73;101970.53;5093228;28;20017;-62
2023/06/07 10:59:12;;;;;;;15.02;6.97;;;;;;;23.28;44.40;101973.28;5093246;28;20036;-62
2023/06/07 11:01:37;;;;;;;12.38;6.90;;;;;;;23.17;44.61;101978.97;5093194;28;20028;-62
2023/06/07 11:04:03;;;;;;;14.45;7.10;;;;;;;23.14;44.90;101973.63;5093161;28;20493;-63
2023/06/07 11:06:28;;;;;;;14.80;6.85;;;;;;;22.99;45.30;101972.16;5093064;28;20111;-62
2023/06/07 11:09:22;;;;;;;13.30;7.47;;;;;;;22.95;45.71;101965.09;5092984;28;20058;-62
2023/06/07 11:11:47;;;;;;;13.07;7.10;;;;;;;22.88;46.18;101962.53;5093044;28;20031;-62
2023/06/07 11:14:13;;;;;;;16.13;7.63;;;;;;;22.83;45.54;101951.84;5093154;28;20485;-64
2023/06/07 11:16:39;;;;;;;16.40;7.53;;;;;;;22.95;46.52;101956.09;5093235;28;20024;-62
2023/06/07 11:19:09;;;;;;;15.27;7.35;;;;;;;22.78;46.31;101958.25;5092621;28;20044;-63